Time;durP1;ratioP1;P1;durP2;ratioP2;P2;SDS_P1;SDS_P2;PMS_P1;PMS_P2;Temp;Humidity;BMP_temperature;BMP_pressure;BME280_temperature;BME280_humidity;BME280_pressure;Samples;Min_cycle;Max_cycle;Signal;HPM_P1;HPM_P2
2022/03/26 00:00:06;;;;;;;49.50;26.47;;;5.50;99.90;;;;;;5017186;28;20172;-78
2022/03/26 00:02:32;;;;;;;49.37;27.37;;;5.50;99.90;;;;;;5016995;28;20215;-79
2022/03/26 00:04:58;;;;;;;50.67;26.47;;;5.50;99.90;;;;;;5015882;28;20241;-79
2022/03/26 00:07:23;;;;;;;49.63;27.23;;;5.60;99.90;;;;;;5018668;28;20247;-78
2022/03/26 00:09:49;;;;;;;52.67;28.50;;;5.60;99.90;;;;;;5021878;28;20258;-79
2022/03/26 00:12:14;;;;;;;55.17;28.93;;;5.60;99.90;;;;;;5004728;28;20179;-79
2022/03/26 00:14:40;;;;;;;49.97;26.97;;;5.60;99.90;;;;;;5019359;28;20250;-79
2022/03/26 00:17:06;;;;;;;54.80;27.40;;;5.60;99.90;;;;;;4999189;28;20569;-74
2022/03/26 00:19:32;;;;;;;50.03;27.47;;;5.50;99.90;;;;;;5015768;28;20242;-74
2022/03/26 00:21:58;;;;;;;48.70;28.23;;;5.40;99.90;;;;;;5016257;28;20190;-74
2022/03/26 00:24:23;;;;;;;53.17;27.73;;;5.30;99.90;;;;;;5015380;28;20227;-75
2022/03/26 00:26:49;;;;;;;52.40;27.40;;;5.40;99.90;;;;;;4997867;28;20179;-75
2022/03/26 00:29:15;;;;;;;51.33;27.97;;;5.30;99.90;;;;;;5015619;28;20192;-75
2022/03/26 00:31:41;;;;;;;50.57;28.33;;;5.10;99.90;;;;;;5015353;28;20179;-75
2022/03/26 00:34:08;;;;;;;47.87;27.47;;;4.90;99.90;;;;;;5015341;28;20697;-76
2022/03/26 00:36:34;;;;;;;53.03;27.20;;;4.60;99.90;;;;;;5015475;28;20176;-76
2022/03/26 00:39:00;;;;;;;47.53;26.37;;;4.50;99.90;;;;;;5014120;28;20214;-77
2022/03/26 00:41:28;;;;;;;49.13;27.60;;;4.30;99.90;;;;;;5014023;28;20188;-77
2022/03/26 00:43:55;;;;;;;46.07;27.00;;;4.30;99.90;;;;;;5014381;28;20210;-77
2022/03/26 00:46:21;;;;;;;48.87;25.70;;;4.30;99.90;;;;;;5015138;28;20176;-77
2022/03/26 00:48:48;;;;;;;46.97;25.80;;;4.20;99.90;;;;;;4997982;28;20207;-77
2022/03/26 00:51:17;;;;;;;45.97;27.37;;;4.30;99.90;;;;;;5015375;28;20199;-78
2022/03/26 00:53:44;;;;;;;45.90;25.83;;;4.30;99.90;;;;;;5015004;28;20549;-77
2022/03/26 00:56:10;;;;;;;53.27;25.77;;;4.40;99.90;;;;;;5013654;28;20188;-77
2022/03/26 00:58:36;;;;;;;44.90;25.67;;;4.40;99.90;;;;;;5014974;28;20558;-77
2022/03/26 01:01:02;;;;;;;47.07;26.77;;;4.50;99.90;;;;;;5014941;28;20171;-78
2022/03/26 01:03:27;;;;;;;45.90;26.33;;;4.60;99.90;;;;;;5013644;28;20211;-77
2022/03/26 01:05:53;;;;;;;45.63;25.23;;;4.50;99.90;;;;;;5014779;28;20195;-77
2022/03/26 01:08:19;;;;;;;48.73;26.07;;;4.50;99.90;;;;;;4997204;28;20662;-77
2022/03/26 01:10:45;;;;;;;46.17;26.50;;;4.30;99.90;;;;;;4997426;28;20180;-77
2022/03/26 01:13:11;;;;;;;47.77;27.23;;;4.30;99.90;;;;;;5014222;28;20242;-77
2022/03/26 01:15:37;;;;;;;43.03;24.90;;;4.30;99.90;;;;;;5020833;28;20261;-78
2022/03/26 01:18:03;;;;;;;41.53;23.80;;;4.40;99.90;;;;;;5015127;28;20670;-77
2022/03/26 01:20:29;;;;;;;45.37;25.77;;;4.60;99.90;;;;;;5014282;28;20180;-77
2022/03/26 01:22:55;;;;;;;51.93;25.53;;;4.60;99.90;;;;;;5018810;28;20190;-77
2022/03/26 01:25:21;;;;;;;50.93;27.20;;;4.50;99.90;;;;;;5022306;28;20518;-78
2022/03/26 01:27:47;;;;;;;51.33;26.33;;;4.40;99.90;;;;;;5015465;28;20214;-77
2022/03/26 01:30:13;;;;;;;44.30;26.03;;;4.40;99.90;;;;;;5014660;28;20180;-77
2022/03/26 01:32:39;;;;;;;54.20;26.87;;;4.30;99.90;;;;;;4997035;28;20614;-77
2022/03/26 01:35:05;;;;;;;47.73;27.70;;;4.30;99.90;;;;;;5013371;28;20184;-77
2022/03/26 01:37:31;;;;;;;50.07;27.33;;;4.20;99.90;;;;;;5013312;28;20183;-77
2022/03/26 01:39:57;;;;;;;49.30;27.40;;;4.20;99.90;;;;;;5014614;28;20297;-77
2022/03/26 01:42:22;;;;;;;56.20;29.57;;;4.30;99.90;;;;;;5013516;28;20278;-78
2022/03/26 01:44:48;;;;;;;55.23;29.10;;;4.30;99.90;;;;;;5014277;28;20294;-79
2022/03/26 01:47:14;;;;;;;49.90;28.60;;;4.20;99.90;;;;;;5016781;28;20176;-79
2022/03/26 01:49:40;;;;;;;58.27;30.00;;;4.10;99.90;;;;;;5018296;28;20234;-80
2022/03/26 01:52:10;;;;;;;50.70;26.83;;;4.00;99.90;;;;;;5018612;28;20172;-79
2022/03/26 01:54:40;;;;;;;49.77;27.67;;;4.00;99.90;;;;;;5018550;28;20218;-79
2022/03/26 01:57:10;;;;;;;52.00;27.37;;;3.90;99.90;;;;;;5020358;28;20172;-80
2022/03/26 01:59:41;;;;;;;51.20;27.87;;;3.80;99.90;;;;;;5021700;28;20203;-77
2022/03/26 02:02:08;;;;;;;49.57;25.93;;;3.80;99.90;;;;;;5018279;28;20167;-76
2022/03/26 02:04:34;;;;;;;45.00;27.93;;;3.70;99.90;;;;;;5016867;28;20222;-75
2022/03/26 02:07:02;;;;;;;50.30;27.00;;;3.80;99.90;;;;;;5018724;28;20192;-76
2022/03/26 02:09:33;;;;;;;46.17;26.13;;;3.90;99.90;;;;;;5018475;28;20552;-80
2022/03/26 02:11:59;;;;;;;43.40;27.33;;;3.90;99.90;;;;;;5021432;28;20172;-79
2022/03/26 02:14:25;;;;;;;50.07;25.83;;;4.00;99.90;;;;;;5018951;28;20210;-79
2022/03/26 02:16:52;;;;;;;47.90;26.90;;;3.90;99.90;;;;;;5019821;28;20175;-79
2022/03/26 02:19:19;;;;;;;51.90;27.43;;;4.00;99.90;;;;;;5018570;28;20195;-78
2022/03/26 02:21:49;;;;;;;48.20;27.90;;;4.00;99.90;;;;;;5018631;28;20199;-78
2022/03/26 02:24:15;;;;;;;53.43;28.40;;;3.90;99.90;;;;;;5018512;28;20234;-79
2022/03/26 02:26:42;;;;;;;51.87;28.10;;;4.00;99.90;;;;;;5018835;28;20665;-79
2022/03/26 02:29:10;;;;;;;53.13;28.53;;;4.10;99.90;;;;;;5018141;28;20208;-78
2022/03/26 02:31:37;;;;;;;53.50;29.30;;;4.10;99.90;;;;;;5017479;28;20172;-78
2022/03/26 02:34:05;;;;;;;54.13;28.60;;;4.10;99.90;;;;;;5016110;28;20180;-78
2022/03/26 02:36:30;;;;;;;55.13;30.10;;;4.00;99.90;;;;;;5017428;28;20180;-78
2022/03/26 02:38:56;;;;;;;48.87;27.77;;;3.80;99.90;;;;;;5017347;28;20693;-78
2022/03/26 02:41:22;;;;;;;51.20;29.40;;;3.60;99.90;;;;;;5017308;28;20187;-78
2022/03/26 02:43:47;;;;;;;54.47;29.20;;;3.60;99.90;;;;;;5017037;28;20552;-78
2022/03/26 02:46:13;;;;;;;49.70;27.23;;;3.50;99.90;;;;;;5016093;28;20270;-77
2022/03/26 02:48:39;;;;;;;50.17;28.20;;;3.50;99.90;;;;;;5018331;28;20200;-78
2022/03/26 02:51:06;;;;;;;47.67;26.20;;;3.40;99.90;;;;;;5020518;28;20183;-79
2022/03/26 02:53:32;;;;;;;50.00;27.60;;;3.40;99.90;;;;;;5020895;28;20201;-79
2022/03/26 02:55:58;;;;;;;48.50;27.00;;;3.20;99.90;;;;;;5019359;28;20233;-79
2022/03/26 02:58:24;;;;;;;48.30;27.53;;;3.10;99.90;;;;;;5021488;28;20265;-78
2022/03/26 03:00:49;;;;;;;48.73;26.23;;;3.00;99.90;;;;;;5020776;28;20184;-78
2022/03/26 03:03:15;;;;;;;44.80;26.03;;;3.00;99.90;;;;;;5017774;28;20291;-79
2022/03/26 03:05:41;;;;;;;44.83;26.10;;;3.00;99.90;;;;;;5017866;28;20237;-79
2022/03/26 03:08:07;;;;;;;53.80;27.37;;;2.90;99.90;;;;;;5018047;28;20249;-79
2022/03/26 03:10:33;;;;;;;49.30;26.03;;;2.90;99.90;;;;;;5019165;28;20186;-79
2022/03/26 03:12:59;;;;;;;50.50;27.10;;;2.90;99.90;;;;;;5019164;28;20228;-79
2022/03/26 03:15:25;;;;;;;46.20;24.40;;;2.90;99.90;;;;;;5017174;28;20186;-79
2022/03/26 03:17:52;;;;;;;48.70;26.50;;;2.90;99.90;;;;;;5017303;28;20242;-79
2022/03/26 03:20:18;;;;;;;48.37;26.03;;;3.00;99.90;;;;;;5018657;28;20180;-79
2022/03/26 03:22:43;;;;;;;46.60;28.13;;;3.10;99.90;;;;;;5017372;28;20186;-79
2022/03/26 03:25:10;;;;;;;44.63;26.73;;;3.00;99.90;;;;;;5017361;28;20215;-78
2022/03/26 03:27:37;;;;;;;43.80;27.47;;;3.00;99.90;;;;;;5019197;28;20219;-78
2022/03/26 03:30:05;;;;;;;44.30;27.57;;;3.00;99.90;;;;;;5018825;28;20160;-78
2022/03/26 03:32:31;;;;;;;54.23;28.40;;;2.90;99.90;;;;;;5016429;28;20179;-78
2022/03/26 03:34:56;;;;;;;55.20;29.47;;;2.80;99.90;;;;;;5017248;28;20232;-78
2022/03/26 03:37:23;;;;;;;45.47;26.93;;;2.80;99.90;;;;;;5016990;28;20192;-78
2022/03/26 03:39:49;;;;;;;50.83;28.93;;;2.80;99.90;;;;;;5001022;28;20183;-79
2022/03/26 03:42:15;;;;;;;50.50;27.40;;;2.70;99.90;;;;;;5017867;28;20179;-80
2022/03/26 03:44:41;;;;;;;49.63;26.87;;;2.80;99.90;;;;;;5017986;28;20211;-80
2022/03/26 03:47:07;;;;;;;49.43;26.70;;;2.90;99.90;;;;;;5017426;28;20186;-80
2022/03/26 03:49:32;;;;;;;46.70;27.03;;;3.00;99.90;;;;;;5017435;28;20231;-79
2022/03/26 03:51:59;;;;;;;57.83;28.13;;;3.00;99.90;;;;;;5019594;28;20175;-79
2022/03/26 03:54:25;;;;;;;43.70;26.27;;;3.00;99.90;;;;;;5018026;28;20187;-79
2022/03/26 03:56:51;;;;;;;48.03;27.07;;;2.90;99.90;;;;;;5018928;28;20267;-79
2022/03/26 03:59:17;;;;;;;46.70;27.73;;;2.80;99.90;;;;;;5018304;28;20666;-79
2022/03/26 04:01:43;;;;;;;45.53;25.47;;;2.70;99.90;;;;;;5017544;28;20330;-79
2022/03/26 04:04:09;;;;;;;54.47;28.40;;;2.80;99.90;;;;;;5018715;28;20207;-79
2022/03/26 04:06:34;;;;;;;41.57;24.37;;;2.80;99.90;;;;;;5017914;28;20286;-80
2022/03/26 04:09:00;;;;;;;47.70;26.97;;;2.80;99.90;;;;;;5017201;28;20202;-78
2022/03/26 04:11:26;;;;;;;45.83;26.33;;;2.60;99.90;;;;;;5015971;28;20255;-79
2022/03/26 04:13:53;;;;;;;49.77;27.53;;;2.60;99.90;;;;;;5016589;28;20688;-78
2022/03/26 04:16:19;;;;;;;50.07;28.90;;;2.50;99.90;;;;;;5017265;28;20638;-79
2022/03/26 04:18:45;;;;;;;51.20;28.83;;;2.50;99.90;;;;;;5000211;28;20208;-79
2022/03/26 04:21:12;;;;;;;46.87;26.10;;;2.40;99.90;;;;;;5017620;28;20184;-79
2022/03/26 04:23:37;;;;;;;47.07;28.07;;;2.30;99.90;;;;;;5018156;28;20211;-79
2022/03/26 04:26:03;;;;;;;47.47;27.07;;;2.30;99.90;;;;;;5017702;28;20583;-79
2022/03/26 04:28:29;;;;;;;52.57;28.47;;;2.30;99.90;;;;;;5017637;28;20243;-78
2022/03/26 04:30:54;;;;;;;45.63;26.20;;;2.40;99.90;;;;;;5018550;28;20175;-78
2022/03/26 04:33:20;;;;;;;47.20;27.07;;;2.60;99.90;;;;;;5016285;28;20637;-79
2022/03/26 04:35:46;;;;;;;52.37;28.03;;;2.50;99.90;;;;;;5016734;28;20179;-79
2022/03/26 04:38:12;;;;;;;51.80;27.57;;;2.40;99.90;;;;;;5016766;28;20225;-79
2022/03/26 04:40:38;;;;;;;50.43;27.37;;;2.40;99.90;;;;;;5018726;28;20190;-80
2022/03/26 04:43:03;;;;;;;44.93;26.47;;;2.30;99.90;;;;;;5016712;28;20180;-79
2022/03/26 04:45:30;;;;;;;53.43;28.20;;;2.20;99.90;;;;;;5017263;28;20246;-79
2022/03/26 04:47:56;;;;;;;50.40;26.33;;;2.10;99.90;;;;;;5017799;28;20299;-78
2022/03/26 04:50:22;;;;;;;51.00;28.40;;;2.10;99.90;;;;;;5016521;28;20697;-79
2022/03/26 04:52:48;;;;;;;52.43;26.67;;;2.10;99.90;;;;;;5016155;28;20179;-79
2022/03/26 04:55:15;;;;;;;51.30;26.20;;;2.10;99.90;;;;;;5017774;28;20650;-79
2022/03/26 04:57:42;;;;;;;46.43;26.93;;;2.00;99.90;;;;;;5017414;28;20231;-79
2022/03/26 05:00:12;;;;;;;48.40;27.10;;;2.00;99.90;;;;;;5019235;28;20184;-79
2022/03/26 05:02:39;;;;;;;37.60;24.07;;;2.00;99.90;;;;;;5018093;28;20180;-80
2022/03/26 05:05:06;;;;;;;47.17;26.93;;;2.00;99.90;;;;;;5020896;28;20298;-75
2022/03/26 05:07:46;;;;;;;53.10;27.17;;;2.00;99.90;;;;;;5030232;28;20199;-76
2022/03/26 05:10:21;;;;;;;45.33;25.23;;;2.10;99.90;;;;;;5006405;28;20179;-74
2022/03/26 05:12:48;;;;;;;49.43;26.03;;;2.10;99.90;;;;;;5018192;28;20226;-74
2022/03/26 05:15:15;;;;;;;47.47;26.90;;;2.20;99.90;;;;;;5017412;28;20201;-74
2022/03/26 05:17:41;;;;;;;49.33;28.60;;;2.30;99.90;;;;;;5015157;28;20293;-75
2022/03/26 05:20:09;;;;;;;44.40;26.70;;;2.40;99.90;;;;;;5013703;28;20267;-75
2022/03/26 05:22:36;;;;;;;47.43;27.93;;;2.30;99.90;;;;;;5013617;28;20184;-75
2022/03/26 05:25:02;;;;;;;53.67;29.03;;;2.40;99.90;;;;;;5014799;28;20214;-75
2022/03/26 05:27:28;;;;;;;46.90;27.33;;;2.40;99.90;;;;;;5014600;28;20172;-75
2022/03/26 05:29:54;;;;;;;50.63;27.50;;;2.20;99.90;;;;;;4997351;28;20230;-75
2022/03/26 05:32:19;;;;;;;52.33;29.03;;;2.10;99.90;;;;;;4996829;28;20253;-75
2022/03/26 05:34:45;;;;;;;55.20;28.80;;;2.10;99.90;;;;;;5015092;28;20191;-75
2022/03/26 05:37:12;;;;;;;53.87;28.93;;;2.20;99.90;;;;;;5014513;28;20256;-75
2022/03/26 05:39:38;;;;;;;48.70;27.37;;;2.20;99.90;;;;;;5013321;28;20697;-76
2022/03/26 05:42:04;;;;;;;49.50;27.13;;;2.30;99.90;;;;;;5013609;28;20180;-76
2022/03/26 05:44:30;;;;;;;50.40;26.30;;;2.40;99.90;;;;;;5013371;28;20689;-76
2022/03/26 05:46:56;;;;;;;46.73;26.47;;;2.40;99.90;;;;;;5014706;28;20302;-76
2022/03/26 05:49:22;;;;;;;46.87;26.17;;;2.20;99.90;;;;;;5014898;28;20226;-75
2022/03/26 05:51:48;;;;;;;43.87;24.63;;;2.10;99.90;;;;;;5015294;28;20176;-74
2022/03/26 05:54:14;;;;;;;46.17;25.87;;;2.10;99.90;;;;;;5014446;28;20175;-74
2022/03/26 05:56:40;;;;;;;49.87;26.30;;;2.10;99.90;;;;;;5013180;28;20650;-74
2022/03/26 05:59:11;;;;;;;46.53;26.37;;;2.20;99.90;;;;;;5014343;28;20198;-74
2022/03/26 06:01:37;;;;;;;49.43;28.17;;;2.40;99.90;;;;;;5013010;28;20172;-74
2022/03/26 06:04:03;;;;;;;49.63;26.43;;;2.40;99.90;;;;;;5012760;28;20298;-75
2022/03/26 06:06:29;;;;;;;47.67;26.67;;;2.50;99.90;;;;;;5014293;28;20242;-75
2022/03/26 06:08:54;;;;;;;47.00;27.13;;;2.50;99.90;;;;;;5014341;28;20195;-75
2022/03/26 06:11:34;;;;;;;49.60;27.20;;;2.50;99.90;;;;;;5090998;27;20592;-62
2022/03/26 06:14:00;;;;;;;48.90;29.53;;;2.50;99.90;;;;;;5090824;28;20173;-60
2022/03/26 06:16:26;;;;;;;46.67;26.87;;;2.60;99.90;;;;;;5089482;28;20288;-60
2022/03/26 06:18:52;;;;;;;54.40;29.03;;;2.60;99.90;;;;;;5091203;28;20629;-59
2022/03/26 06:21:18;;;;;;;48.67;28.00;;;2.70;99.90;;;;;;5091120;28;20203;-62
2022/03/26 06:23:44;;;;;;;51.97;28.60;;;2.70;99.90;;;;;;5089487;28;20210;-59
2022/03/26 06:26:10;;;;;;;57.20;28.20;;;2.80;99.90;;;;;;5090732;28;20201;-60
2022/03/26 06:28:37;;;;;;;48.27;26.90;;;3.00;99.90;;;;;;5074050;28;20178;-59
2022/03/26 06:31:03;;;;;;;48.30;27.67;;;3.00;99.90;;;;;;5070402;28;20237;-59
2022/03/26 06:33:29;;;;;;;50.07;25.63;;;3.00;99.90;;;;;;5070880;28;20171;-60
2022/03/26 06:35:54;;;;;;;51.83;27.67;;;3.10;99.90;;;;;;5070485;28;20681;-60
2022/03/26 06:38:20;;;;;;;49.37;28.10;;;3.20;99.90;;;;;;5070320;28;20181;-60
2022/03/26 06:40:46;;;;;;;45.57;27.70;;;3.30;99.90;;;;;;5070613;28;20683;-60
2022/03/26 06:43:12;;;;;;;48.17;27.03;;;3.30;99.90;;;;;;5070136;28;20178;-60
2022/03/26 06:45:38;;;;;;;45.50;26.67;;;3.40;99.90;;;;;;5070582;28;20301;-60
2022/03/26 06:48:04;;;;;;;48.20;29.03;;;3.50;99.90;;;;;;5070184;28;20170;-59
2022/03/26 06:50:29;;;;;;;49.17;27.83;;;3.70;99.90;;;;;;5070149;28;20646;-60
2022/03/26 06:52:56;;;;;;;51.47;27.40;;;3.80;99.90;;;;;;5070533;28;20204;-60
2022/03/26 06:55:23;;;;;;;51.27;28.43;;;4.00;99.90;;;;;;5071019;28;20193;-59
2022/03/26 06:57:51;;;;;;;55.33;29.77;;;4.20;99.90;;;;;;5078890;28;20178;-60
2022/03/26 07:00:17;;;;;;;53.87;28.63;;;4.40;99.90;;;;;;5070278;28;20167;-60
2022/03/26 07:02:44;;;;;;;53.53;29.50;;;4.60;99.90;;;;;;5069908;28;20184;-60
2022/03/26 07:05:11;;;;;;;47.60;27.57;;;4.80;99.90;;;;;;5070082;28;20205;-61
2022/03/26 07:07:37;;;;;;;52.33;28.43;;;5.00;99.90;;;;;;5069705;28;20213;-60
2022/03/26 07:10:04;;;;;;;47.63;27.87;;;5.10;99.90;;;;;;5069436;28;20230;-59
2022/03/26 07:12:30;;;;;;;49.80;27.50;;;5.30;99.90;;;;;;5069561;28;20552;-59
2022/03/26 07:14:56;;;;;;;46.97;27.80;;;5.40;99.90;;;;;;5069860;28;20169;-61
2022/03/26 07:17:22;;;;;;;53.07;28.47;;;5.50;99.90;;;;;;5069772;28;20165;-61
2022/03/26 07:19:48;;;;;;;56.73;30.50;;;5.50;99.90;;;;;;5069503;28;20169;-61
2022/03/26 07:22:15;;;;;;;50.10;29.40;;;5.60;99.90;;;;;;5059825;28;20265;-61
2022/03/26 07:24:41;;;;;;;50.23;28.87;;;5.70;99.90;;;;;;5056677;28;20183;-62
2022/03/26 07:27:06;;;;;;;50.93;29.27;;;5.70;99.90;;;;;;5065117;28;20217;-61
2022/03/26 07:29:33;;;;;;;57.23;30.57;;;5.70;99.90;;;;;;5056141;28;20569;-61
2022/03/26 07:31:59;;;;;;;49.63;30.53;;;5.70;99.90;;;;;;5054958;28;20174;-60
2022/03/26 07:34:26;;;;;;;57.07;30.80;;;5.70;99.90;;;;;;5055988;28;20185;-62
2022/03/26 07:36:53;;;;;;;62.20;32.17;;;5.90;99.90;;;;;;5056348;28;20195;-61
2022/03/26 07:39:19;;;;;;;56.97;31.43;;;6.20;99.90;;;;;;5056358;28;20169;-61
2022/03/26 07:41:45;;;;;;;57.70;31.57;;;6.30;99.90;;;;;;5055186;28;20179;-61
2022/03/26 07:44:11;;;;;;;54.20;30.83;;;6.40;99.90;;;;;;5055842;28;20251;-61
2022/03/26 07:46:36;;;;;;;58.60;32.17;;;6.70;99.90;;;;;;5055986;28;20666;-61
2022/03/26 07:49:02;;;;;;;56.77;30.57;;;6.90;99.90;;;;;;5056149;28;20639;-61
2022/03/26 07:51:28;;;;;;;53.93;30.80;;;7.20;99.90;;;;;;5056536;28;20205;-61
2022/03/26 07:53:54;;;;;;;55.00;30.23;;;7.20;99.90;;;;;;5055851;28;20186;-61
2022/03/26 07:56:20;;;;;;;53.70;31.73;;;7.20;99.90;;;;;;5061363;28;20206;-60
2022/03/26 07:58:47;;;;;;;51.50;29.57;;;7.30;99.90;;;;;;5058117;28;20186;-61
2022/03/26 08:01:13;;;;;;;53.50;30.60;;;7.50;99.90;;;;;;5055462;28;20187;-64
2022/03/26 08:03:38;;;;;;;50.50;30.50;;;7.80;99.90;;;;;;5055019;28;20224;-64
2022/03/26 08:06:04;;;;;;;54.97;30.93;;;7.90;99.90;;;;;;5055412;28;20234;-61
2022/03/26 08:08:30;;;;;;;48.50;29.40;;;8.20;99.90;;;;;;5055549;28;20531;-60
2022/03/26 08:10:55;;;;;;;47.13;30.67;;;8.40;99.90;;;;;;5054024;28;20214;-62
2022/03/26 08:13:21;;;;;;;51.03;29.30;;;8.60;99.90;;;;;;5055378;28;20182;-62
2022/03/26 08:15:47;;;;;;;59.47;31.47;;;8.70;99.90;;;;;;5055166;28;20200;-62
2022/03/26 08:18:12;;;;;;;51.50;30.27;;;9.00;99.90;;;;;;5055251;28;20247;-61
2022/03/26 08:20:38;;;;;;;59.90;32.57;;;9.20;99.90;;;;;;5055071;28;20213;-61
2022/03/26 08:23:04;;;;;;;52.23;31.70;;;9.60;99.90;;;;;;5055162;28;20174;-62
2022/03/26 08:28:15;;;;;;;47.87;27.53;;;10.80;99.90;;;;;;5068178;28;20212;-62
2022/03/26 08:30:41;;;;;;;48.08;28.55;;;12.20;99.90;;;;;;5074901;28;20237;-61
2022/03/26 08:33:07;;;;;;;51.25;28.45;;;13.40;99.90;;;;;;5074247;28;20178;-62
2022/03/26 08:35:41;;;;;;;46.50;28.15;;;14.60;99.90;;;;;;5078773;28;20584;-62
2022/03/26 08:38:08;;;;;;;46.00;28.13;;;15.00;99.90;;;;;;5075106;28;20178;-61
2022/03/26 08:40:34;;;;;;;43.22;27.70;;;15.70;99.90;;;;;;5073913;28;20768;-63
2022/03/26 08:43:01;;;;;;;45.42;30.00;;;16.50;99.90;;;;;;5074446;28;20174;-63
2022/03/26 08:45:27;;;;;;;44.72;30.27;;;17.30;99.90;;;;;;5074544;28;20688;-62
2022/03/26 08:47:53;;;;;;;46.40;28.40;;;17.70;99.90;;;;;;5074788;28;20178;-63
2022/03/26 08:50:19;;;;;;;41.85;27.83;;;17.30;99.90;;;;;;5074426;28;20202;-63
2022/03/26 08:52:47;;;;;;;47.53;29.25;;;17.60;99.90;;;;;;5074978;28;20193;-63
2022/03/26 08:55:14;;;;;;;45.10;27.42;;;18.20;99.90;;;;;;5074736;28;20223;-63
2022/03/26 08:57:40;;;;;;;41.55;28.05;;;18.50;99.90;;;;;;5065637;28;20174;-63
2022/03/26 09:00:07;;;;;;;43.90;29.98;;;19.10;99.90;;;;;;5073964;28;20227;-63
2022/03/26 09:02:33;;;;;;;47.80;28.35;;;20.20;99.90;;;;;;5074574;28;20515;-63
2022/03/26 09:04:59;;;;;;;39.95;27.85;;;20.60;99.90;;;;;;5074731;28;20192;-61
2022/03/26 09:07:25;;;;;;;45.03;28.15;;;20.20;99.90;;;;;;5072816;28;20234;-62
2022/03/26 09:09:50;;;;;;;43.90;29.02;;;20.10;99.90;;;;;;5074089;28;20292;-62
2022/03/26 09:12:16;;;;;;;44.80;29.23;;;19.80;99.90;;;;;;5074022;28;20178;-61
2022/03/26 09:14:43;;;;;;;43.38;28.70;;;19.70;99.90;;;;;;5073679;28;20169;-61
2022/03/26 09:17:09;;;;;;;46.28;30.73;;;19.60;99.90;;;;;;5073917;28;20190;-61
2022/03/26 09:19:36;;;;;;;46.20;30.60;;;19.60;99.90;;;;;;5073980;28;20508;-63
2022/03/26 09:22:02;;;;;;;44.40;28.95;;;19.50;99.90;;;;;;5072557;28;20181;-63
2022/03/26 09:24:28;;;;;;;43.00;28.85;;;19.10;99.90;;;;;;5074226;28;20241;-62
2022/03/26 09:26:54;;;;;;;41.83;28.38;;;18.70;99.90;;;;;;5065060;28;20202;-62
2022/03/26 09:29:20;;;;;;;43.22;28.67;;;18.70;99.90;;;;;;5073678;28;20209;-62
2022/03/26 09:31:46;;;;;;;41.33;27.73;;;18.20;99.90;;;;;;5073929;28;20626;-68
2022/03/26 09:34:11;;;;;;;46.05;28.60;;;18.00;99.90;;;;;;5073914;28;20180;-68
2022/03/26 09:36:37;;;;;;;45.33;28.23;;;17.60;99.90;;;;;;5074287;28;20232;-65
2022/03/26 09:39:03;;;;;;;43.30;28.55;;;17.20;99.90;;;;;;5073619;28;20536;-62
2022/03/26 09:41:31;;;;;;;38.72;25.92;;;17.20;99.90;;;;;;5073940;28;20171;-62
2022/03/26 09:43:57;;;;;;;45.47;27.98;;;17.00;99.90;;;;;;5073289;28;20227;-62
2022/03/26 09:46:26;;;;;;;39.58;26.08;;;16.90;99.90;;;;;;5073423;28;20292;-62
2022/03/26 09:48:52;;;;;;;42.65;27.55;;;16.90;99.90;;;;;;5073537;28;20571;-62
2022/03/26 09:51:23;;;;;;;49.17;29.20;;;16.90;99.90;;;;;;5073591;28;20194;-62
2022/03/26 09:53:51;;;;;;;47.10;27.58;;;16.80;99.90;;;;;;5073668;28;20196;-62
2022/03/26 09:56:18;;;;;;;45.88;27.20;;;16.60;99.90;;;;;;5067590;28;20311;-62
2022/03/26 09:58:44;;;;;;;46.63;27.95;;;16.70;99.90;;;;;;5070459;28;20225;-61
2022/03/26 10:01:09;;;;;;;44.92;27.30;;;16.60;99.90;;;;;;5073668;28;20165;-61
2022/03/26 10:03:40;;;;;;;48.20;29.40;;;16.50;99.90;;;;;;5073736;28;20248;-61
2022/03/26 10:06:09;;;;;;;47.10;28.75;;;16.30;99.90;;;;;;5073525;28;20193;-61
2022/03/26 10:08:36;;;;;;;45.95;29.25;;;16.30;99.90;;;;;;5073832;28;20710;-62
2022/03/26 10:11:03;;;;;;;48.03;29.75;;;16.10;99.90;;;;;;5073238;28;20229;-62
2022/03/26 10:13:40;;;;;;;43.65;25.73;;;16.00;99.90;;;;;;5072969;28;20170;-61
2022/03/26 10:16:09;;;;;;;38.25;23.33;;;16.20;99.90;;;;;;5073290;28;20189;-61
2022/03/26 10:18:46;;;;;;;34.50;22.50;;;16.20;99.90;;;;;;5073476;28;20170;-62
2022/03/26 10:21:17;;;;;;;42.03;23.67;;;16.10;99.90;;;;;;5073195;28;20208;-62
2022/03/26 10:23:44;;;;;;;33.90;20.95;;;16.20;99.90;;;;;;5073081;28;20224;-62
2022/03/26 10:26:11;;;;;;;32.70;20.52;;;16.30;99.90;;;;;;5066994;28;20233;-62
2022/03/26 10:28:40;;;;;;;35.22;21.63;;;16.50;99.90;;;;;;5069163;28;20657;-62
2022/03/26 10:34:19;;;;;;;26.92;13.90;;;16.60;99.90;;;;;;5073181;28;20581;-62
2022/03/26 10:36:54;;;;;;;29.77;15.77;;;16.70;99.90;;;;;;5073233;28;20738;-62
2022/03/26 10:39:27;;;;;;;24.58;15.18;;;16.80;99.90;;;;;;5073008;28;20166;-62
2022/03/26 10:41:54;;;;;;;22.05;14.13;;;16.90;99.90;;;;;;5073118;28;20154;-63
2022/03/26 10:44:28;;;;;;;22.83;15.25;;;17.00;99.90;;;;;;5072696;28;20166;-62
2022/03/26 10:46:57;;;;;;;21.10;14.05;;;17.10;99.90;;;;;;5072923;28;20285;-62
2022/03/26 10:49:28;;;;;;;21.15;14.30;;;17.10;99.90;;;;;;5072727;28;20269;-61
2022/03/26 10:51:56;;;;;;;22.13;13.63;;;17.10;99.90;;;;;;5071584;28;20185;-61
2022/03/26 10:54:31;;;;;;;18.80;12.40;;;17.20;99.90;;;;;;5072796;28;20170;-61
2022/03/26 10:56:59;;;;;;;20.92;13.57;;;17.20;99.90;;;;;;5064070;28;20206;-63
2022/03/26 10:59:25;;;;;;;23.30;13.50;;;17.30;99.90;;;;;;5075077;28;20178;-62
2022/03/26 11:01:51;;;;;;;18.13;11.93;;;17.40;99.90;;;;;;5076837;28;20166;-62
2022/03/26 11:04:18;;;;;;;20.58;12.73;;;17.60;99.90;;;;;;5076832;28;20178;-62
2022/03/26 11:06:45;;;;;;;21.55;12.68;;;17.70;99.90;;;;;;5075245;28;20247;-62
2022/03/26 11:09:13;;;;;;;18.52;12.18;;;17.90;99.90;;;;;;5076272;28;20174;-62
2022/03/26 11:11:39;;;;;;;19.85;13.38;;;18.10;99.90;;;;;;5076299;28;20546;-62
2022/03/26 11:14:18;;;;;;;15.90;11.27;;;18.30;99.90;;;;;;5076014;28;20177;-62
2022/03/26 11:16:53;;;;;;;16.08;12.25;;;18.60;99.90;;;;;;5076182;28;20186;-61
2022/03/26 11:19:38;;;;;;;20.65;12.32;;;18.90;99.90;;;;;;5076168;28;20240;-62
2022/03/26 11:22:23;;;;;;;20.95;11.65;;;19.10;99.90;;;;;;5076420;28;20154;-62
2022/03/26 11:25:09;;;;;;;16.17;11.20;;;19.30;99.90;;;;;;5076224;28;20158;-62
2022/03/26 11:28:18;;;;;;;19.67;11.82;;;19.20;99.90;;;;;;5067244;28;20181;-61
2022/03/26 11:30:47;;;;;;;20.15;11.35;;;19.40;99.90;;;;;;5061333;28;20309;-62
2022/03/26 11:33:17;;;;;;;18.52;12.15;;;19.60;99.90;;;;;;5075988;28;20201;-62
2022/03/26 11:36:10;;;;;;;19.83;12.52;;;19.70;99.90;;;;;;5076303;28;20190;-62
2022/03/26 11:38:37;;;;;;;20.23;11.07;;;19.60;99.90;;;;;;5075438;28;20186;-62
2022/03/26 11:41:05;;;;;;;16.42;10.77;;;19.80;99.90;;;;;;5075671;28;20228;-63
2022/03/26 11:43:43;;;;;;;17.23;12.02;;;19.90;99.90;;;;;;5075704;28;20650;-62
2022/03/26 11:52:11;;;;;;;14.98;10.68;;;20.10;99.90;;;;;;5075874;28;20307;-61
2022/03/26 11:54:37;;;;;;;15.35;10.02;;;20.20;99.90;;;;;;5075756;28;20162;-62
2022/03/26 11:57:10;;;;;;;14.38;9.98;;;20.40;99.90;;;;;;5065355;28;20204;-63
2022/03/26 11:59:37;;;;;;;15.88;10.13;;;20.50;99.90;;;;;;5075194;28;20177;-63
2022/03/26 12:02:24;;;;;;;19.00;10.32;;;20.80;99.90;;;;;;5075884;28;20255;-63
2022/03/26 12:08:18;;;;;;;17.10;10.48;;;21.10;99.90;;;;;;5075646;28;20192;-62
2022/03/26 12:10:45;;;;;;;16.30;9.80;;;21.20;99.90;;;;;;5075056;28;20248;-62
2022/03/26 12:13:22;;;;;;;14.60;10.63;;;21.30;99.90;;;;;;5075277;28;20699;-63
2022/03/26 12:16:02;;;;;;;16.42;11.10;;;21.50;99.90;;;;;;5075229;28;20227;-62
2022/03/26 12:18:33;;;;;;;18.02;10.88;;;21.50;99.90;;;;;;5075619;28;20168;-62
2022/03/26 12:21:19;;;;;;;17.00;12.00;;;21.60;99.90;;;;;;5075287;28;20174;-62
2022/03/26 12:23:45;;;;;;;15.20;10.23;;;21.90;99.90;;;;;;5075019;28;20214;-63
2022/03/26 12:26:10;;;;;;;19.45;12.57;;;21.90;99.90;;;;;;5070175;28;20205;-62
2022/03/26 12:28:41;;;;;;;19.38;11.77;;;22.10;99.90;;;;;;5070845;28;20185;-62
2022/03/26 12:31:11;;;;;;;20.20;12.63;;;22.20;99.90;;;;;;5073535;28;20681;-62
2022/03/26 12:33:41;;;;;;;17.52;13.50;;;22.20;99.90;;;;;;5074734;28;20163;-62
2022/03/26 12:36:07;;;;;;;17.15;12.00;;;22.30;99.90;;;;;;5074639;28;20264;-62
2022/03/26 12:38:33;;;;;;;19.60;12.77;;;22.60;99.90;;;;;;5074745;28;20184;-63
2022/03/26 12:41:00;;;;;;;20.50;11.80;;;22.60;99.90;;;;;;5073479;28;20174;-62
2022/03/26 12:43:27;;;;;;;17.33;10.80;;;22.70;99.90;;;;;;5074604;28;20227;-62
2022/03/26 12:45:56;;;;;;;16.50;11.80;;;22.70;99.90;;;;;;5074452;28;20200;-62
2022/03/26 12:48:26;;;;;;;19.83;12.38;;;22.80;99.90;;;;;;5075786;28;20173;-62